Canefield Airport

Cloudy with light showers and slight dust haze
29oC (84oF)

Cloudy with light showers and slight dust haze


Winds: Easterly @ 07kts / 13km/h

Humidity: 64%

Barometric Pressure: 1015 mb

Accumulated Rainfall for December: 44.7 mm

Updated: 11:00 local time (15:00 UTC)

Douglas-Charles Airport

Cloudy
26oC (79oF)

Cloudy


Winds: Southerly @ 04kts / 07km/h

Humidity: 87%

Barometric Pressure: 1017 mb

Accumulated Rainfall for December: 18.9 mm

Updated: 11:00 local time (15:00 UTC)

Satellite Imagery

Satellite Imagery
Click image for larger view. (Source: National Hurricane Center).

Aviation Routine Report (METAR)

Douglas-Charles: METAR TDPD 081500Z 17004KT 9999 SCT016 26/24 Q1017 RERA=
Canefield: METAR TDCF 081500Z 10007KT 9999 -SHRA BKN014 29/22 Q1015=